createdAt,value
2018-11-13T00:00:15.844Z,94.9
2018-11-13T00:05:15.780Z,94.9
2018-11-13T00:10:15.553Z,95.1
2018-11-13T00:15:16.455Z,95
2018-11-13T00:20:15.643Z,94.7
2018-11-13T00:25:15.513Z,94.7
2018-11-13T00:30:18.354Z,94.6
2018-11-13T00:35:15.222Z,94.5
2018-11-13T00:40:15.622Z,94.4
2018-11-13T00:45:15.453Z,94.1
2018-11-13T00:50:15.380Z,94.1
2018-11-13T00:55:15.895Z,94.2
2018-11-13T01:00:15.947Z,94.7
2018-11-13T01:05:16.034Z,94.6
2018-11-13T01:10:15.439Z,94.5
2018-11-13T01:15:15.565Z,94.1
2018-11-13T01:20:15.709Z,94.3
2018-11-13T01:25:15.647Z,94.5
2018-11-13T01:30:15.747Z,94.5
2018-11-13T01:35:15.579Z,94.8
2018-11-13T01:40:18.524Z,95
2018-11-13T01:45:15.777Z,94.7
2018-11-13T01:50:15.460Z,94.7
2018-11-13T01:55:16.106Z,94.8
2018-11-13T02:00:16.521Z,95.1
2018-11-13T02:05:15.999Z,94.9
2018-11-13T02:10:15.804Z,94.9
2018-11-13T02:15:15.959Z,95
2018-11-13T02:20:16.618Z,95.1
2018-11-13T02:25:15.752Z,95.3
2018-11-13T02:30:15.621Z,95.1
2018-11-13T02:35:15.781Z,95.2
2018-11-13T02:40:15.450Z,94.9
2018-11-13T02:45:15.699Z,94.9
2018-11-13T02:50:16.038Z,94.8
2018-11-13T02:55:16.747Z,95
2018-11-13T03:00:18.100Z,95.2
2018-11-13T03:05:15.784Z,95.4
2018-11-13T03:10:16.140Z,95.6
2018-11-13T03:15:16.397Z,95.5
2018-11-13T03:20:15.860Z,95.3
2018-11-13T03:25:16.115Z,95.6
2018-11-13T03:30:15.923Z,95.1
2018-11-13T03:35:16.393Z,95.3
2018-11-13T03:40:16.383Z,95.6
2018-11-13T03:45:17.794Z,95.4
2018-11-13T03:50:26.007Z,95.7
2018-11-13T03:55:15.203Z,96
2018-11-13T04:00:15.658Z,95.7
2018-11-13T04:05:15.509Z,95.9
2018-11-13T04:10:15.323Z,96.3
2018-11-13T04:15:15.755Z,96.4
2018-11-13T04:20:15.459Z,96.5
2018-11-13T04:25:15.457Z,96.4
2018-11-13T04:30:15.416Z,96.7
2018-11-13T04:35:15.383Z,96.5
2018-11-13T04:40:15.189Z,97
2018-11-13T04:45:15.091Z,97.4
2018-11-13T04:50:15.701Z,97.4
2018-11-13T04:55:15.152Z,97.7
2018-11-13T05:00:16.665Z,97.4
2018-11-13T05:05:15.473Z,97.5
2018-11-13T05:10:15.276Z,98
2018-11-13T05:15:15.367Z,97.8
2018-11-13T05:20:15.727Z,97.8
2018-11-13T05:25:15.481Z,98.2
2018-11-13T05:30:15.546Z,98.6
2018-11-13T05:35:15.721Z,98.6
2018-11-13T05:40:14.986Z,99.2
2018-11-13T05:45:15.150Z,99.5
2018-11-13T05:50:16.624Z,99.6
2018-11-13T05:55:15.472Z,99.6
2018-11-13T06:00:15.877Z,99.6
2018-11-13T06:05:14.884Z,99.5
2018-11-13T06:10:15.601Z,99.3
2018-11-13T06:15:15.173Z,99.7
2018-11-13T06:20:16.027Z,99.3
2018-11-13T06:25:14.947Z,99.2
2018-11-13T06:30:15.091Z,98.6
2018-11-13T06:35:15.227Z,98.7
2018-11-13T06:40:14.985Z,99
2018-11-13T06:45:14.959Z,98.8
2018-11-13T06:50:14.992Z,98.6
2018-11-13T06:55:15.341Z,98.7
2018-11-13T07:00:15.455Z,98.9
2018-11-13T07:05:15.536Z,98.7
2018-11-13T07:10:14.749Z,98.7
2018-11-13T07:15:15.000Z,98.1
2018-11-13T07:20:14.883Z,97.9
2018-11-13T07:25:15.385Z,96.9
2018-11-13T07:30:15.075Z,96.5
2018-11-13T07:35:15.700Z,95.8
2018-11-13T07:40:15.519Z,94.6
2018-11-13T07:45:15.333Z,93.7
2018-11-13T07:50:15.474Z,92.7
2018-11-13T07:55:15.583Z,92.7
2018-11-13T08:00:16.208Z,93.6
2018-11-13T08:05:15.302Z,93.4
2018-11-13T08:10:14.859Z,93.7
2018-11-13T08:15:15.246Z,93.7
2018-11-13T08:20:16.084Z,93.8
2018-11-13T08:25:15.532Z,93.7
2018-11-13T08:30:15.840Z,93
2018-11-13T08:35:15.072Z,91.5
2018-11-13T08:40:15.075Z,91.3
2018-11-13T08:45:15.770Z,91.5
2018-11-13T08:50:15.441Z,90.8
2018-11-13T08:55:16.091Z,90.7
2018-11-13T09:00:15.587Z,90.2
2018-11-13T09:05:16.226Z,89.6
2018-11-13T09:10:15.520Z,89.8
2018-11-13T09:15:15.617Z,90.8
2018-11-13T09:20:15.606Z,90.7
2018-11-13T09:25:15.599Z,90.5
2018-11-13T09:30:15.144Z,90.1
2018-11-13T09:35:15.065Z,86.9
2018-11-13T09:40:14.791Z,86
2018-11-13T09:45:15.012Z,83.8
2018-11-13T09:50:15.418Z,83.3
2018-11-13T09:55:14.919Z,83.6
2018-11-13T10:00:16.021Z,82.9
2018-11-13T10:05:15.997Z,82.6
2018-11-13T10:10:15.150Z,82.1
2018-11-13T10:15:15.277Z,82.5
2018-11-13T10:20:15.122Z,82.3
2018-11-13T10:25:15.834Z,82.1
2018-11-13T10:30:14.687Z,81.1
2018-11-13T10:35:15.136Z,81.4
2018-11-13T10:40:14.699Z,81
2018-11-13T10:45:14.635Z,80.6
2018-11-13T10:50:14.654Z,81.7
2018-11-13T10:55:14.655Z,80.5
2018-11-13T11:00:14.695Z,80.4
2018-11-13T11:05:14.838Z,80.6
2018-11-13T11:10:14.603Z,81.3
2018-11-13T11:15:15.084Z,81.1
2018-11-13T11:20:15.284Z,81.9
2018-11-13T11:25:19.775Z,81.8
2018-11-13T11:30:15.689Z,81.6
2018-11-13T11:35:15.257Z,80.4
2018-11-13T11:40:14.834Z,80.6
2018-11-13T11:45:14.569Z,80.8
2018-11-13T11:50:15.140Z,80.9
2018-11-13T11:55:14.629Z,80.1
2018-11-13T12:00:15.121Z,78.5
2018-11-13T12:05:14.809Z,77.5
2018-11-13T12:10:14.665Z,76.2
2018-11-13T12:15:14.779Z,76.4
2018-11-13T12:20:14.422Z,75.7
2018-11-13T12:25:14.655Z,75
2018-11-13T12:30:14.292Z,75
2018-11-13T12:35:14.310Z,74.6
2018-11-13T12:40:18.148Z,75.8
2018-11-13T12:45:14.986Z,76.7
2018-11-13T12:50:14.984Z,76.3
2018-11-13T12:55:16.095Z,76.2
2018-11-13T13:00:14.895Z,76.8
2018-11-13T13:05:14.594Z,76.4
2018-11-13T13:10:14.752Z,76.8
2018-11-13T13:15:14.787Z,76.8
2018-11-13T13:20:17.000Z,77
2018-11-13T13:25:14.739Z,76.8
2018-11-13T13:30:15.149Z,76.7
2018-11-13T13:35:14.443Z,76.8
2018-11-13T13:40:14.692Z,75.9
2018-11-13T13:45:15.184Z,77
2018-11-13T13:50:15.510Z,76.6
2018-11-13T13:55:14.438Z,76.6
2018-11-13T14:00:16.001Z,77.2
2018-11-13T14:05:14.540Z,77
2018-11-13T14:10:14.711Z,77.5
2018-11-13T14:15:14.792Z,77.4
2018-11-13T14:20:14.789Z,78.2
2018-11-13T14:25:14.610Z,78.8
2018-11-13T14:30:14.933Z,78
2018-11-13T14:35:16.241Z,77.7
2018-11-13T14:40:14.782Z,78
2018-11-13T14:45:14.784Z,76.9
2018-11-13T14:50:15.732Z,76.3
2018-11-13T14:55:22.006Z,76.4
2018-11-13T15:00:14.525Z,76.3
2018-11-13T15:05:14.734Z,77.3
2018-11-13T15:10:15.909Z,78
2018-11-13T15:15:18.235Z,78.5
2018-11-13T15:20:16.060Z,78.9
2018-11-13T15:25:15.785Z,79.3
2018-11-13T15:30:22.084Z,79.7
2018-11-13T15:35:15.996Z,79.1
2018-11-13T15:40:14.666Z,79.5
2018-11-13T15:45:14.776Z,79.5
2018-11-13T15:50:22.570Z,79.2
2018-11-13T15:55:20.310Z,79.5
2018-11-13T16:00:15.764Z,80
2018-11-13T16:05:14.422Z,80.4
2018-11-13T16:10:15.742Z,81.1
2018-11-13T16:15:14.753Z,82
2018-11-13T16:20:15.482Z,82.5
2018-11-13T16:26:46.100Z,82.7
2018-11-13T16:30:15.922Z,83.2
2018-11-13T16:35:16.604Z,83.9
2018-11-13T16:40:22.998Z,84.3
2018-11-13T16:45:42.129Z,84.8
2018-11-13T16:51:08.724Z,85
2018-11-13T16:55:14.478Z,85.2
2018-11-13T17:00:24.463Z,85.8
2018-11-13T17:05:58.781Z,86
2018-11-13T17:10:17.255Z,86.2
2018-11-13T17:15:20.483Z,86.6
2018-11-13T17:20:34.545Z,86.6
2018-11-13T17:25:29.476Z,87.2
2018-11-13T17:30:34.085Z,87.4
2018-11-13T17:35:15.827Z,87.4
2018-11-13T17:40:14.682Z,87.8
2018-11-13T17:45:15.160Z,88.4
2018-11-13T17:50:19.340Z,88.3
2018-11-13T17:55:19.736Z,87.9
2018-11-13T18:00:35.989Z,88.3
2018-11-13T18:25:31.886Z,89.7
2018-11-13T18:30:17.747Z,89.9
2018-11-13T18:35:17.161Z,90
2018-11-13T18:40:16.981Z,90.2
2018-11-13T18:45:16.835Z,90.5
2018-11-13T18:50:17.471Z,90.6
2018-11-13T18:55:18.848Z,90.5
2018-11-13T19:00:18.571Z,90.9
2018-11-13T19:05:17.896Z,91.4
2018-11-13T19:10:16.794Z,91.3
2018-11-13T19:15:16.949Z,91.9
2018-11-13T19:20:17.058Z,91.8
2018-11-13T19:25:17.114Z,92.2
2018-11-13T19:30:20.798Z,92.5
2018-11-13T19:35:20.327Z,92.6
2018-11-13T19:40:16.825Z,92.7
2018-11-13T19:45:17.166Z,92.2
2018-11-13T19:50:17.119Z,92.4
2018-11-13T19:55:16.735Z,92.5
2018-11-13T20:00:17.091Z,92.5
2018-11-13T20:05:17.081Z,93.1
2018-11-13T20:10:16.946Z,93.5
2018-11-13T20:15:17.182Z,93.3
2018-11-13T20:20:21.521Z,94.1
2018-11-13T20:25:16.795Z,94.1
2018-11-13T20:30:16.699Z,94.8
2018-11-13T20:35:17.240Z,94.6
2018-11-13T20:40:17.088Z,94.3
2018-11-13T20:45:16.894Z,94.3
2018-11-13T20:50:16.751Z,94.5
2018-11-13T20:55:16.693Z,94
2018-11-13T21:10:48.981Z,94.7
2018-11-13T21:15:16.397Z,94.6
2018-11-13T21:20:16.690Z,94.7
2018-11-13T21:25:16.481Z,95
2018-11-13T21:30:25.135Z,94.9
2018-11-13T21:35:17.753Z,94.9
2018-11-13T21:40:16.510Z,95.1
2018-11-13T21:45:16.612Z,95
2018-11-13T22:00:23.833Z,95
2018-11-13T22:05:16.249Z,94.9
2018-11-13T22:10:16.301Z,94.8
2018-11-13T22:15:16.229Z,95
2018-11-13T22:20:16.442Z,95.3
2018-11-13T22:25:16.122Z,95.5
2018-11-13T22:30:16.312Z,95.7
2018-11-13T22:35:16.334Z,95.9
2018-11-13T22:40:16.281Z,95
2018-11-13T22:45:16.040Z,95.6
2018-11-13T22:50:16.476Z,96.1
2018-11-13T22:55:16.151Z,96.3
2018-11-13T23:00:18.170Z,96.2
2018-11-13T23:05:16.540Z,96.6
2018-11-13T23:10:16.413Z,96.7
2018-11-13T23:15:16.422Z,96.6
2018-11-13T23:20:16.318Z,97.2
2018-11-13T23:25:16.169Z,96.9
2018-11-13T23:30:16.376Z,96.9
2018-11-13T23:35:16.139Z,97.1
2018-11-13T23:40:16.208Z,97
2018-11-13T23:45:16.291Z,96.9
2018-11-13T23:50:16.433Z,96.6
2018-11-13T23:55:17.157Z,96.6
